createdAt,value
2024-05-09T00:00:36.187Z,102019.41
2024-05-09T00:03:08.389Z,102022.84
2024-05-09T00:05:36.801Z,102025.47
2024-05-09T00:08:04.375Z,102028.09
2024-05-09T00:10:36.381Z,102019.38
2024-05-09T00:13:05.966Z,102020.31
2024-05-09T00:15:33.831Z,102021.16
2024-05-09T00:18:01.112Z,102026.41
2024-05-09T00:20:33.508Z,102017.69
2024-05-09T00:23:07.283Z,102020.25
2024-05-09T00:25:34.227Z,102026.31
2024-05-09T00:28:00.940Z,102020.34
2024-05-09T00:30:33.735Z,102022.91
2024-05-09T00:33:03.191Z,102026.34
2024-05-09T00:35:30.383Z,102029.03
2024-05-09T00:37:57.147Z,102026.41
2024-05-09T00:40:35.046Z,102029.91
2024-05-09T00:43:06.087Z,102028.19
2024-05-09T00:45:33.959Z,102029.13
2024-05-09T00:48:03.196Z,102028.22
2024-05-09T00:50:36.110Z,102024.69
2024-05-09T00:53:06.038Z,102021.19
2024-05-09T00:55:34.888Z,102019.44
2024-05-09T00:58:03.089Z,102017.69
2024-05-09T01:00:37.832Z,102020.34
2024-05-09T01:03:07.328Z,102007.28
2024-05-09T01:05:35.043Z,102007.31
2024-05-09T01:08:03.042Z,102007.31
2024-05-09T01:10:34.475Z,102006.44
2024-05-09T01:13:06.703Z,102004.69
2024-05-09T01:15:35.058Z,102002.94
2024-05-09T01:18:07.620Z,102002.94
2024-05-09T01:20:41.282Z,102001.25
2024-05-09T01:23:11.625Z,102004.66
2024-05-09T01:25:38.636Z,101999.50
2024-05-09T01:28:06.316Z,102006.47
2024-05-09T01:30:35.896Z,102013.41
2024-05-09T01:33:06.785Z,102002.06
2024-05-09T01:35:35.282Z,102004.72
2024-05-09T01:38:02.211Z,102001.22
2024-05-09T01:40:36.709Z,102000.31
2024-05-09T01:43:06.118Z,101999.47
2024-05-09T01:45:32.953Z,102000.38
2024-05-09T01:47:59.884Z,102001.25
2024-05-09T01:50:37.385Z,102010.81
2024-05-09T01:53:08.796Z,102019.50
2024-05-09T01:55:35.738Z,102012.56
2024-05-09T01:58:02.400Z,102015.09
2024-05-09T02:00:37.385Z,102007.28
2024-05-09T02:03:10.195Z,102015.13
2024-05-09T02:05:37.769Z,102020.38
2024-05-09T02:08:05.597Z,102017.78
2024-05-09T02:10:33.399Z,102012.53
2024-05-09T02:13:00.490Z,102015.13
2024-05-09T02:15:27.116Z,102009.00
2024-05-09T02:17:54.081Z,102015.13
2024-05-09T02:20:30.183Z,102004.66
2024-05-09T02:23:05.086Z,102009.94
2024-05-09T02:25:32.789Z,101999.47
2024-05-09T02:27:59.668Z,102008.16
2024-05-09T02:30:36.227Z,101996.03
2024-05-09T02:33:07.907Z,101996.84
2024-05-09T02:35:35.263Z,101995.09
2024-05-09T02:38:02.062Z,101990.75
2024-05-09T02:40:36.150Z,101990.78
2024-05-09T02:43:05.849Z,101996.00
2024-05-09T02:45:32.860Z,101998.59
2024-05-09T02:47:59.765Z,102003.84
2024-05-09T02:50:34.356Z,101993.41
2024-05-09T02:53:05.701Z,101984.69
2024-05-09T02:55:32.770Z,101986.41
2024-05-09T02:57:59.559Z,101986.41
2024-05-09T03:00:34.825Z,101982.06
2024-05-09T03:03:08.459Z,101981.19
2024-05-09T03:05:36.691Z,101976.81
2024-05-09T03:08:04.156Z,101982.94
2024-05-09T03:10:35.965Z,101988.16
2024-05-09T03:13:09.178Z,101985.56
2024-05-09T03:15:36.376Z,101988.16
2024-05-09T03:18:04.551Z,101989.03
2024-05-09T03:20:34.862Z,101989.03
2024-05-09T03:23:03.880Z,101990.78
2024-05-09T03:25:30.813Z,101987.28
2024-05-09T03:27:57.375Z,101995.06
2024-05-09T03:30:35.956Z,101989.84
2024-05-09T03:33:15.347Z,101984.66
2024-05-09T03:35:46.211Z,101989.88
2024-05-09T03:38:13.185Z,101988.13
2024-05-09T03:40:47.494Z,101983.78
2024-05-09T03:43:14.662Z,101976.81
2024-05-09T03:45:45.108Z,101974.19
2024-05-09T03:48:12.129Z,101975.03
2024-05-09T03:50:39.214Z,101977.63
2024-05-09T03:53:09.457Z,101973.31
2024-05-09T03:55:36.171Z,101976.75
2024-05-09T03:58:02.790Z,101983.72
2024-05-09T04:00:36.939Z,101981.91
2024-05-09T04:03:11.005Z,101971.47
2024-05-09T04:05:40.831Z,101975.81
2024-05-09T04:08:08.931Z,101984.50
2024-05-09T04:10:35.878Z,101974.88
2024-05-09T04:13:03.674Z,101982.69
2024-05-09T04:15:30.813Z,101983.47
2024-05-09T04:17:57.793Z,101971.19
2024-05-09T04:20:34.251Z,101973.13
2024-05-09T04:23:06.845Z,101965.16
2024-05-09T04:25:33.977Z,101967.00
2024-05-09T04:28:00.649Z,101974.78
2024-05-09T04:30:36.343Z,101972.94
2024-05-09T04:33:07.061Z,101980.69
2024-05-09T04:35:35.035Z,101971.06
2024-05-09T04:38:01.686Z,101971.88
2024-05-09T04:40:33.652Z,101969.25
2024-05-09T04:43:03.978Z,101977.16
2024-05-09T04:45:30.788Z,101969.16
2024-05-09T04:47:57.840Z,101981.28
2024-05-09T04:50:33.189Z,101973.44
2024-05-09T04:53:04.008Z,101966.38
2024-05-09T04:55:30.722Z,101964.63
2024-05-09T04:57:57.632Z,101961.09
2024-05-09T05:00:32.496Z,101951.44
2024-05-09T05:03:07.051Z,101945.28
2024-05-09T05:05:37.289Z,101955.66
2024-05-09T05:08:04.091Z,101950.25
2024-05-09T05:10:35.872Z,101950.38
2024-05-09T05:13:18.007Z,101964.25
2024-05-09T05:16:03.540Z,101961.56
2024-05-09T05:18:30.314Z,101959.66
2024-05-09T05:20:58.593Z,101968.19
2024-05-09T05:23:25.465Z,101966.34
2024-05-09T05:25:53.364Z,101965.22
2024-05-09T05:28:20.793Z,101959.97
2024-05-09T05:30:47.565Z,101959.03
2024-05-09T05:33:16.032Z,101957.91
2024-05-09T05:35:42.963Z,101956.13
2024-05-09T05:38:10.796Z,101951.59
2024-05-09T05:40:38.710Z,101952.22
2024-05-09T05:43:10.459Z,101945.06
2024-05-09T05:45:37.900Z,101952.78
2024-05-09T05:48:06.526Z,101942.34
2024-05-09T05:50:36.938Z,101941.31
2024-05-09T05:53:06.731Z,101930.25
2024-05-09T05:55:33.714Z,101930.31
2024-05-09T05:58:01.961Z,101927.28
2024-05-09T06:00:34.988Z,101924.25
2024-05-09T06:03:05.837Z,101919.59
2024-05-09T06:05:32.944Z,101922.56
2024-05-09T06:07:59.746Z,101918.13
2024-05-09T06:10:34.898Z,101917.09
2024-05-09T06:13:05.605Z,101917.03
2024-05-09T06:15:32.278Z,101928.47
2024-05-09T06:17:59.471Z,101918.22
2024-05-09T06:20:34.727Z,101916.88
2024-05-09T06:23:04.405Z,101914.84
2024-05-09T06:25:31.391Z,101917.78
2024-05-09T06:27:57.966Z,101923.66
2024-05-09T06:30:30.965Z,101914.66
2024-05-09T06:33:06.060Z,101924.22
2024-05-09T06:35:33.643Z,101926.16
2024-05-09T06:38:00.852Z,101913.59
2024-05-09T06:40:36.233Z,101919.00
2024-05-09T06:43:05.671Z,101912.19
2024-05-09T06:45:32.311Z,101917.13
2024-05-09T06:47:59.316Z,101908.75
2024-05-09T06:50:28.644Z,101905.66
2024-05-09T06:53:02.398Z,101906.31
2024-05-09T06:55:29.202Z,101902.31
2024-05-09T06:57:55.934Z,101895.09
2024-05-09T07:00:30.281Z,101892.72
2024-05-09T07:03:12.290Z,101883.69
2024-05-09T07:05:40.474Z,101888.06
2024-05-09T07:08:07.451Z,101886.53
2024-05-09T07:10:36.106Z,101883.50
2024-05-09T07:13:07.849Z,101887.41
2024-05-09T07:15:34.396Z,101882.34
2024-05-09T07:18:01.240Z,101883.47
2024-05-09T07:20:34.170Z,101883.38
2024-05-09T07:23:03.138Z,101885.00
2024-05-09T07:25:30.309Z,101875.66
2024-05-09T07:27:57.099Z,101880.31
2024-05-09T07:30:32.550Z,101872.09
2024-05-09T07:33:01.462Z,101872.78
2024-05-09T07:35:28.812Z,101872.19
2024-05-09T07:37:55.596Z,101868.19
2024-05-09T07:40:31.698Z,101874.56
2024-05-09T07:43:07.288Z,101871.66
2024-05-09T07:52:23.584Z,101871.38
2024-05-09T07:53:38.730Z,101868.97
2024-05-09T07:56:09.094Z,101868.38
2024-05-09T07:58:36.603Z,101869.19
2024-05-09T08:01:03.374Z,101863.28
2024-05-09T08:03:30.542Z,101859.75
2024-05-09T08:05:57.251Z,101860.25
2024-05-09T08:08:23.834Z,101853.59
2024-05-09T08:10:51.330Z,101864.09
2024-05-09T08:13:18.057Z,101856.16
2024-05-09T08:15:44.959Z,101858.69
2024-05-09T08:18:12.939Z,101856.72
2024-05-09T08:20:41.428Z,101851.34
2024-05-09T08:23:08.291Z,101853.66
2024-05-09T08:25:34.880Z,101861.78
2024-05-09T08:28:01.551Z,101860.31
2024-05-09T08:30:33.800Z,101854.53
2024-05-09T08:33:04.633Z,101850.34
2024-05-09T08:35:31.855Z,101851.19
2024-05-09T08:37:58.641Z,101851.84
2024-05-09T08:40:32.931Z,101843.56
2024-05-09T08:43:02.873Z,101842.69
2024-05-09T08:45:30.208Z,101851.88
2024-05-09T08:48:01.516Z,101853.25
2024-05-09T08:50:35.937Z,101845.66
2024-05-09T08:53:06.059Z,101847.91
2024-05-09T08:55:32.916Z,101853.16
2024-05-09T08:58:02.720Z,101842.06
2024-05-09T09:00:36.804Z,101855.13
2024-05-09T09:03:07.238Z,101845.19
2024-05-09T09:05:38.057Z,101846.75
2024-05-09T09:08:07.314Z,101838.72
2024-05-09T09:10:34.083Z,101832.34
2024-05-09T09:13:05.107Z,101830.34
2024-05-09T09:15:34.972Z,101837.81
2024-05-09T09:18:01.910Z,101835.34
2024-05-09T09:20:35.880Z,101826.75
2024-05-09T09:23:04.551Z,101835.03
2024-05-09T09:25:31.851Z,101838.09
2024-05-09T09:27:58.964Z,101822.94
2024-05-09T09:30:36.247Z,101825.06
2024-05-09T09:33:06.067Z,101829.91
2024-05-09T09:35:33.152Z,101826.03
2024-05-09T09:38:03.328Z,101829.25
2024-05-09T09:40:42.399Z,101820.53
2024-05-09T09:43:18.600Z,101816.38
2024-05-09T09:45:46.906Z,101813.34
2024-05-09T09:48:15.317Z,101807.09
2024-05-09T09:50:43.187Z,101809.69
2024-05-09T09:53:11.405Z,101799.19
2024-05-09T09:55:39.827Z,101802.78
2024-05-09T09:58:09.573Z,101803.00
2024-05-09T10:00:38.601Z,101804.28
2024-05-09T10:03:05.500Z,101802.34
2024-05-09T10:05:33.724Z,101805.19
2024-05-09T10:08:05.148Z,101803.06
2024-05-09T10:10:34.169Z,101803.25
2024-05-09T10:13:04.555Z,101803.75
2024-05-09T10:15:46.204Z,101800.03
2024-05-09T10:18:13.450Z,101800.72
2024-05-09T10:20:49.348Z,101796.03
2024-05-09T10:23:33.597Z,101797.16
2024-05-09T10:26:05.510Z,101790.06
2024-05-09T10:28:34.108Z,101784.63
2024-05-09T10:31:07.533Z,101789.38
2024-05-09T10:33:46.207Z,101784.09
2024-05-09T10:36:14.761Z,101781.75
2024-05-09T10:38:43.019Z,101780.53
2024-05-09T10:41:10.771Z,101779.50
2024-05-09T10:43:39.818Z,101774.41
2024-05-09T10:46:07.690Z,101770.38
2024-05-09T10:48:36.008Z,101773.69
2024-05-09T10:51:03.104Z,101772.31
2024-05-09T10:53:31.145Z,101765.59
2024-05-09T10:56:01.678Z,101759.50
2024-05-09T10:58:28.509Z,101757.81
2024-05-09T11:00:58.341Z,101758.78
2024-05-09T11:03:25.274Z,101757.22
2024-05-09T11:05:52.981Z,101751.59
2024-05-09T11:08:23.975Z,101750.53
2024-05-09T11:10:52.714Z,101746.31
2024-05-09T11:13:33.067Z,101741.41
2024-05-09T11:16:00.774Z,101743.50
2024-05-09T11:18:32.187Z,101731.50
2024-05-09T11:21:02.023Z,101727.53
2024-05-09T11:23:32.235Z,101725.53
2024-05-09T11:25:59.169Z,101727.78
2024-05-09T11:28:28.798Z,101720.59
2024-05-09T11:31:06.695Z,101709.13
2024-05-09T11:33:37.640Z,101714.56
2024-05-09T11:36:05.339Z,101713.59
2024-05-09T11:38:32.560Z,101707.00
2024-05-09T11:40:59.208Z,101706.59
2024-05-09T11:43:25.801Z,101702.72
2024-05-09T11:45:52.500Z,101692.09
2024-05-09T11:48:19.331Z,101692.94
2024-05-09T11:50:46.109Z,101694.97
2024-05-09T11:53:12.696Z,101694.09
2024-05-09T11:55:39.290Z,101694.22
2024-05-09T11:58:06.141Z,101696.06
2024-05-09T12:00:36.987Z,101699.38
2024-05-09T12:03:05.771Z,101691.78
2024-05-09T12:05:33.347Z,101692.94
2024-05-09T12:08:00.867Z,101689.78
2024-05-09T12:10:33.208Z,101687.84
2024-05-09T12:13:03.981Z,101681.16
2024-05-09T12:15:32.411Z,101682.28
2024-05-09T12:18:02.530Z,101678.47
2024-05-09T12:20:36.617Z,101677.66
2024-05-09T12:23:06.566Z,101673.25
2024-05-09T12:25:36.132Z,101672.63
2024-05-09T12:28:03.123Z,101674.75
2024-05-09T12:30:36.571Z,101672.84
2024-05-09T12:33:08.594Z,101671.88
2024-05-09T12:35:35.635Z,101668.97
2024-05-09T12:38:03.064Z,101662.13
2024-05-09T12:42:59.279Z,101663.94
2024-05-09T12:45:25.862Z,101652.75
2024-05-09T12:47:52.574Z,101657.19
2024-05-09T12:50:28.786Z,101647.97
2024-05-09T12:52:58.421Z,101656.94
2024-05-09T12:55:25.058Z,101649.72
2024-05-09T12:57:51.673Z,101651.91
2024-05-09T13:00:24.022Z,101644.31
2024-05-09T13:02:57.851Z,101648.59
2024-05-09T13:05:24.750Z,101642.69
2024-05-09T13:07:51.510Z,101622.09
2024-05-09T13:10:28.690Z,101640.06
2024-05-09T13:12:59.271Z,101635.72
2024-05-09T13:15:26.028Z,101622.97
2024-05-09T13:17:52.879Z,101631.59
2024-05-09T13:20:28.890Z,101622.38
2024-05-09T13:23:01.466Z,101622.06
2024-05-09T13:25:28.067Z,101625.78
2024-05-09T13:27:55.011Z,101622.63
2024-05-09T13:30:29.345Z,101617.22
2024-05-09T13:33:05.162Z,101622.06
2024-05-09T13:35:32.336Z,101626.09
2024-05-09T13:37:59.068Z,101616.94
2024-05-09T13:40:32.705Z,101615.31
2024-05-09T13:43:02.173Z,101604.56
2024-05-09T13:45:29.039Z,101607.75
2024-05-09T13:47:55.860Z,101603.91
2024-05-09T13:50:31.105Z,101602.69
2024-05-09T13:53:01.941Z,101607.91
2024-05-09T13:55:28.711Z,101600.09
2024-05-09T13:57:55.630Z,101595.47
2024-05-09T14:00:32.105Z,101591.69
2024-05-09T14:03:09.394Z,101597.50
2024-05-09T14:05:36.308Z,101596.47
2024-05-09T14:08:04.522Z,101596.91
2024-05-09T14:10:32.376Z,101598.34
2024-05-09T14:13:00.742Z,101591.81
2024-05-09T14:15:27.770Z,101589.28
2024-05-09T14:17:55.409Z,101583.84
2024-05-09T14:20:30.387Z,101582.13
2024-05-09T14:22:59.309Z,101580.97
2024-05-09T14:25:28.391Z,101571.38
2024-05-09T14:27:56.068Z,101562.81
2024-05-09T14:30:30.649Z,101569.00
2024-05-09T14:33:03.471Z,101566.88
2024-05-09T14:35:30.258Z,101573.25
2024-05-09T14:37:56.927Z,101572.28
2024-05-09T14:40:36.634Z,101569.34
2024-05-09T14:43:08.493Z,101555.84
2024-05-09T14:45:35.520Z,101551.44
2024-05-09T14:48:03.727Z,101552.50
2024-05-09T14:50:36.100Z,101548.78
2024-05-09T14:53:07.096Z,101548.47
2024-05-09T14:55:36.899Z,101551.00
2024-05-09T14:58:06.830Z,101550.72
2024-05-09T15:00:36.602Z,101541.09
2024-05-09T15:03:05.531Z,101536.88
2024-05-09T15:05:32.248Z,101530.84
2024-05-09T15:07:59.456Z,101533.09
2024-05-09T15:10:33.982Z,101531.50
2024-05-09T15:13:04.304Z,101532.72
2024-05-09T15:15:31.177Z,101532.66
2024-05-09T15:17:58.060Z,101527.88
2024-05-09T15:20:32.979Z,101524.09
2024-05-09T15:23:02.813Z,101530.34
2024-05-09T15:25:29.728Z,101520.53
2024-05-09T15:27:56.710Z,101516.69
2024-05-09T15:30:30.724Z,101522.78
2024-05-09T15:33:03.257Z,101524.25
2024-05-09T15:35:30.144Z,101512.09
2024-05-09T15:37:56.818Z,101518.78
2024-05-09T15:40:35.539Z,101508.44
2024-05-09T15:43:07.127Z,101509.19
2024-05-09T15:45:34.568Z,101518.06
2024-05-09T15:48:02.564Z,101506.72
2024-05-09T15:50:36.938Z,101512.16
2024-05-09T15:53:07.997Z,101505.72
2024-05-09T15:55:35.557Z,101507.00
2024-05-09T15:58:03.307Z,101504.03
2024-05-09T16:00:37.572Z,101496.13
2024-05-09T16:03:08.566Z,101499.31
2024-05-09T16:05:35.538Z,101493.53
2024-05-09T16:08:02.617Z,101494.72
2024-05-09T16:10:32.952Z,101492.59
2024-05-09T16:13:01.555Z,101490.97
2024-05-09T16:15:28.803Z,101498.88
2024-05-09T16:17:56.220Z,101489.41
2024-05-09T16:20:34.238Z,101496.50
2024-05-09T16:23:06.467Z,101493.09
2024-05-09T16:25:33.398Z,101486.38
2024-05-09T16:28:00.293Z,101490.59
2024-05-09T16:30:31.929Z,101489.50
2024-05-09T16:33:02.450Z,101486.88
2024-05-09T16:35:29.437Z,101489.81
2024-05-09T16:37:56.181Z,101481.44
2024-05-09T16:40:30.319Z,101485.59
2024-05-09T16:43:04.648Z,101488.53
2024-05-09T16:45:32.013Z,101488.53
2024-05-09T16:47:59.956Z,101489.53
2024-05-09T16:50:32.333Z,101473.94
2024-05-09T16:53:01.124Z,101481.94
2024-05-09T16:55:28.035Z,101477.59
2024-05-09T16:57:55.626Z,101479.56
2024-05-09T17:00:31.631Z,101484.53
2024-05-09T17:03:06.807Z,101481.69
2024-05-09T17:05:34.311Z,101483.94
2024-05-09T17:08:01.473Z,101486.50
2024-05-09T17:10:32.889Z,101482.63
2024-05-09T17:13:02.920Z,101483.44
2024-05-09T17:15:30.088Z,101489.91
2024-05-09T17:17:57.051Z,101489.66
2024-05-09T17:20:31.353Z,101485.88
2024-05-09T17:23:02.284Z,101475.72
2024-05-09T17:25:29.380Z,101480.78
2024-05-09T17:27:56.647Z,101481.53
2024-05-09T17:30:31.570Z,101480.19
2024-05-09T17:33:03.338Z,101469.97
2024-05-09T17:35:30.109Z,101477.53
2024-05-09T17:37:58.134Z,101471.75
2024-05-09T17:40:31.133Z,101476.84
2024-05-09T17:43:01.781Z,101469.88
2024-05-09T17:45:28.558Z,101474.25
2024-05-09T17:47:55.567Z,101479.13
2024-05-09T17:50:30.225Z,101471.16
2024-05-09T17:53:01.329Z,101475.19
2024-05-09T17:55:28.735Z,101470.41
2024-05-09T17:57:55.614Z,101472.78
2024-05-09T18:00:32.867Z,101472.66
2024-05-09T18:03:05.486Z,101481.84
2024-05-09T18:05:32.621Z,101486.06
2024-05-09T18:07:59.458Z,101479.03
2024-05-09T18:10:33.156Z,101475.22
2024-05-09T18:13:04.120Z,101475.25
2024-05-09T18:15:30.906Z,101483.22
2024-05-09T18:17:58.108Z,101478.13
2024-05-09T18:20:33.166Z,101485.41
2024-05-09T18:23:08.133Z,101487.59
2024-05-09T18:25:34.953Z,101495.34
2024-05-09T18:28:03.039Z,101498.69
2024-05-09T18:30:34.778Z,101498.88
2024-05-09T18:33:04.945Z,101495.03
2024-05-09T18:35:32.661Z,101497.28
2024-05-09T18:37:59.382Z,101500.63
2024-05-09T18:40:33.645Z,101504.88
2024-05-09T18:43:04.891Z,101506.72
2024-05-09T18:45:32.668Z,101508.38
2024-05-09T18:47:59.508Z,101494.56
2024-05-09T18:50:34.345Z,101499.28
2024-05-09T18:53:08.771Z,101503.91
2024-05-09T18:55:35.753Z,101509.63
2024-05-09T18:58:03.671Z,101510.97
2024-05-09T19:00:35.918Z,101509.56
2024-05-09T19:03:09.690Z,101518.69
2024-05-09T19:05:38.863Z,101514.56
2024-05-09T19:08:06.370Z,101503.66
2024-05-09T19:10:35.040Z,101506.63
2024-05-09T19:13:08.035Z,101505.59
2024-05-09T19:15:38.601Z,101503.09
2024-05-09T19:18:06.180Z,101507.16
2024-05-09T19:20:35.243Z,101500.19
2024-05-09T19:23:03.629Z,101505.19
2024-05-09T19:25:30.424Z,101503.25
2024-05-09T19:27:57.120Z,101504.78
2024-05-09T19:30:32.883Z,101500.13
2024-05-09T19:33:05.740Z,101512.19
2024-05-09T19:35:32.643Z,101512.03
2024-05-09T19:37:59.477Z,101512.44
2024-05-09T19:40:31.318Z,101511.66
2024-05-09T19:43:00.492Z,101517.03
2024-05-09T19:45:27.164Z,101513.66
2024-05-09T19:47:53.922Z,101512.88
2024-05-09T19:50:27.123Z,101512.47
2024-05-09T19:53:03.076Z,101519.41
2024-05-09T19:55:29.824Z,101512.69
2024-05-09T19:57:56.948Z,101510.97
2024-05-09T20:00:32.328Z,101506.09
2024-05-09T20:03:02.551Z,101503.00
2024-05-09T20:05:31.217Z,101500.13
2024-05-09T20:07:58.203Z,101494.97
2024-05-09T20:10:31.105Z,101494.56
2024-05-09T20:12:59.667Z,101491.88
2024-05-09T20:15:26.463Z,101489.53
2024-05-09T20:17:53.844Z,101492.19
2024-05-09T20:20:28.693Z,101495.16
2024-05-09T20:23:03.258Z,101497.53
2024-05-09T20:25:29.974Z,101485.38
2024-05-09T20:27:56.674Z,101489.13
2024-05-09T20:30:30.565Z,101477.91
2024-05-09T20:32:59.980Z,101485.91
2024-05-09T20:35:26.950Z,101482.44
2024-05-09T20:37:53.645Z,101480.47
2024-05-09T20:40:28.360Z,101481.41
2024-05-09T20:42:59.143Z,101473.56
2024-05-09T20:45:25.863Z,101472.09
2024-05-09T20:47:52.760Z,101469.16
2024-05-09T20:50:28.196Z,101469.41
2024-05-09T20:53:02.682Z,101466.00
2024-05-09T20:55:30.128Z,101465.22
2024-05-09T20:58:00.363Z,101471.41
2024-05-09T21:00:35.173Z,101461.09
2024-05-09T21:03:07.350Z,101457.44
2024-05-09T21:05:35.195Z,101464.41
2024-05-09T21:08:02.321Z,101454.56
2024-05-09T21:10:32.823Z,101463.22
2024-05-09T21:13:00.939Z,101458.22
2024-05-09T21:15:27.740Z,101463.91
2024-05-09T21:17:54.472Z,101458.56
2024-05-09T21:20:28.122Z,101462.16
2024-05-09T21:22:58.069Z,101461.38
2024-05-09T21:25:24.761Z,101458.56
2024-05-09T21:27:51.566Z,101447.28
2024-05-09T21:30:27.319Z,101448.63
2024-05-09T21:32:59.929Z,101451.97
2024-05-09T21:35:26.642Z,101447.56
2024-05-09T21:37:53.320Z,101447.03
2024-05-09T21:40:27.349Z,101447.56
2024-05-09T21:43:01.208Z,101441.03
2024-05-09T21:45:27.996Z,101442.78
2024-05-09T21:47:55.136Z,101445.31
2024-05-09T21:50:28.199Z,101443.69
2024-05-09T21:53:02.020Z,101441.91
2024-05-09T21:55:28.638Z,101436.34
2024-05-09T21:57:56.633Z,101439.13
2024-05-09T22:00:29.234Z,101427.94
2024-05-09T22:03:02.608Z,101430.59
2024-05-09T22:05:29.492Z,101430.69
2024-05-09T22:07:56.984Z,101428.66
2024-05-09T22:10:30.531Z,101417.81
2024-05-09T22:13:00.880Z,101417.75
2024-05-09T22:15:27.604Z,101415.09
2024-05-09T22:17:56.062Z,101417.75
2024-05-09T22:20:29.422Z,101414.91
2024-05-09T22:23:04.247Z,101412.31
2024-05-09T22:25:32.094Z,101413.78
2024-05-09T22:27:59.483Z,101413.09
2024-05-09T22:30:33.730Z,101400.03
2024-05-09T22:33:04.719Z,101396.53
2024-05-09T22:35:31.444Z,101400.38
2024-05-09T22:37:57.998Z,101395.13
2024-05-09T22:40:37.427Z,101394.72
2024-05-09T22:43:12.309Z,101392.66
2024-05-09T22:45:39.235Z,101389.09
2024-05-09T22:48:06.741Z,101393.63
2024-05-09T22:50:33.928Z,101384.13
2024-05-09T22:53:00.981Z,101382.09
2024-05-09T22:55:27.714Z,101385.44
2024-05-09T22:57:54.364Z,101382.16
2024-05-09T23:00:29.285Z,101382.13
2024-05-09T23:03:02.372Z,101381.09
2024-05-09T23:05:29.700Z,101379.81
2024-05-09T23:07:56.481Z,101371.19
2024-05-09T23:10:31.089Z,101366.88
2024-05-09T23:13:02.612Z,101363.09
2024-05-09T23:15:29.504Z,101372.72
2024-05-09T23:17:57.356Z,101352.59
2024-05-09T23:22:53.909Z,101345.81
2024-05-09T23:25:20.609Z,101336.63
2024-05-09T23:27:47.364Z,101328.84
2024-05-09T23:30:25.395Z,101328.91
2024-05-09T23:32:55.968Z,101322.66
2024-05-09T23:35:22.761Z,101316.63
2024-05-09T23:37:49.360Z,101317.28
2024-05-09T23:40:19.007Z,101323.66
2024-05-09T23:42:49.342Z,101321.59
2024-05-09T23:45:16.015Z,101318.09
2024-05-09T23:47:42.684Z,101314.38
2024-05-09T23:50:16.554Z,101307.31
2024-05-09T23:52:47.380Z,101309.84
2024-05-09T23:55:14.171Z,101312.56
2024-05-09T23:57:41.146Z,101306.03
